Time;durP1;ratioP1;P1;durP2;ratioP2;P2;SDS_P1;SDS_P2;PMS_P1;PMS_P2;Temp;Humidity;BMP_temperature;BMP_pressure;BME280_temperature;BME280_humidity;BME280_pressure;Samples;Min_cycle;Max_cycle;Signal;HPM_P1;HPM_P2
2023/06/18 00:02:25;;;;;;;;;;;;;;;17.69;47.86;97787.16;5088899;28;19977;-59
2023/06/18 00:04:53;;;;;;;;;;;;;;;17.67;47.85;97778.47;5080627;28;19947;-59
2023/06/18 00:07:22;;;;;;;;;;;;;;;17.63;47.92;97788.63;5091868;28;19920;-60
2023/06/18 00:09:50;;;;;;;;;;;;;;;17.50;48.26;97789.88;5074023;28;19959;-60
2023/06/18 00:12:17;;;;;;;;;;;;;;;17.41;48.53;97792.81;5070394;28;19927;-59
2023/06/18 00:14:45;;;;;;;;;;;;;;;17.24;48.91;97788.53;5089291;28;19920;-59
2023/06/18 00:17:13;;;;;;;;;;;;;;;17.21;49.15;97797.50;5086921;28;19924;-59
2023/06/18 00:19:41;;;;;;;;;;;;;;;17.23;49.04;97792.44;5090977;28;19977;-59
2023/06/18 00:22:09;;;;;;;;;;;;;;;17.27;49.36;97793.31;5088848;28;19924;-59
2023/06/18 00:24:39;;;;;;;;;;;;;;;17.22;49.37;97795.56;5089655;28;19943;-60
2023/06/18 00:27:07;;;;;;;;;;;;;;;17.25;49.45;97803.84;5090326;28;19932;-59
2023/06/18 00:29:36;;;;;;;;;;;;;;;17.19;49.30;97788.81;5088829;28;20006;-60
2023/06/18 00:32:04;;;;;;;;;;;;;;;17.24;49.04;97791.28;5081289;28;20357;-60
2023/06/18 00:34:33;;;;;;;;;;;;;;;17.32;48.90;97788.72;5083447;28;19998;-60
2023/06/18 00:37:02;;;;;;;;;;;;;;;17.30;48.44;97786.31;5072428;28;19925;-59
2023/06/18 00:39:30;;;;;;;;;;;;;;;17.20;48.31;97793.16;5074076;28;20358;-60
2023/06/18 00:42:00;;;;;;;;;;;;;;;17.07;48.64;97786.19;5067392;28;20369;-60
2023/06/18 00:44:30;;;;;;;;;;;;;;;17.05;48.35;97783.00;5068543;28;20444;-59
2023/06/18 00:46:59;;;;;;;;;;;;;;;16.93;48.65;97788.59;5070151;28;20015;-60
2023/06/18 00:49:28;;;;;;;;;;;;;;;16.94;48.66;97790.22;5077175;28;20364;-60
2023/06/18 00:51:56;;;;;;;;;;;;;;;16.95;49.26;97786.31;5072339;28;20735;-62
2023/06/18 00:54:24;;;;;;;;;;;;;;;16.86;49.09;97783.72;5070116;28;19970;-60
2023/06/18 00:56:52;;;;;;;;;;;;;;;16.95;48.96;97791.78;5087308;28;20331;-60
2023/06/18 00:59:22;;;;;;;;;;;;;;;17.02;48.97;97792.75;5091339;28;19931;-60
2023/06/18 01:01:51;;;;;;;;;;;;;;;17.03;48.67;97790.78;5073429;28;19991;-60
2023/06/18 01:04:20;;;;;;;;;;;;;;;17.12;48.30;97788.66;5077371;28;20015;-60
2023/06/18 01:06:51;;;;;;;;;;;;;;;17.09;47.58;97792.09;5069780;28;19920;-60
2023/06/18 01:09:21;;;;;;;;;;;;;;;17.07;48.09;97788.13;5084152;28;20007;-60
2023/06/18 01:11:51;;;;;;;;;;;;;;;17.13;47.42;97792.19;5076437;28;19985;-60
2023/06/18 01:14:21;;;;;;;;;;;;;;;17.09;47.68;97785.81;5067001;28;20347;-60
2023/06/18 01:16:51;;;;;;;;;;;;;;;17.01;47.54;97784.88;5077882;28;20323;-60
2023/06/18 01:19:27;;;;;;;;;;;;;;;16.99;47.70;97787.97;5076491;28;19927;-60
2023/06/18 01:21:56;;;;;;;;;;;;;;;16.88;47.86;97786.13;5071580;28;19970;-65
2023/06/18 01:24:27;;;;;;;;;;;;;;;16.84;47.76;97785.25;5080248;28;20441;-60
2023/06/18 01:26:56;;;;;;;;;;;;;;;16.87;47.84;97790.00;5076640;28;20269;-60
2023/06/18 01:29:27;;;;;;;;;;;;;;;16.86;47.85;97782.94;5081466;28;19966;-60
2023/06/18 01:31:56;;;;;;;;;;;;;;;16.90;47.94;97789.31;5066177;28;19927;-60
2023/06/18 01:34:24;;;;;;;;;;;;;;;16.92;47.64;97789.75;5090862;28;19920;-60
2023/06/18 01:36:53;;;;;;;;;;;;;;;16.90;47.60;97784.63;5090406;28;19967;-60
2023/06/18 01:39:24;;;;;;;;;;;;;;;16.89;47.74;97782.25;5078760;28;19973;-60
2023/06/18 01:41:52;;;;;;;;;;;;;;;16.75;47.79;97778.00;5078352;28;19920;-60
2023/06/18 01:44:20;;;;;;;;;;;;;;;16.62;48.13;97776.47;5072387;28;20429;-61
2023/06/18 01:46:49;;;;;;;;;;;;;;;16.61;48.24;97777.59;5082845;28;19952;-60
2023/06/18 01:49:17;;;;;;;;;;;;;;;16.65;48.55;97777.69;5074395;28;19928;-60
2023/06/18 01:51:45;;;;;;;;;;;;;;;16.59;48.68;97779.13;5095977;28;19952;-60
2023/06/18 01:54:12;;;;;;;;;;;;;;;16.54;48.49;97782.13;5085568;28;19943;-60
2023/06/18 01:56:40;;;;;;;;;;;;;;;16.45;48.80;97783.06;5084741;28;19920;-61
2023/06/18 01:59:08;;;;;;;;;;;;;;;16.54;48.87;97776.63;5087732;28;20404;-59
2023/06/18 02:01:36;;;;;;;;;;;;;;;16.55;49.38;97784.50;5070710;28;19936;-60
2023/06/18 02:04:08;;;;;;;;;;;;;;;16.46;49.91;97781.16;5090064;28;20018;-60
2023/06/18 02:06:36;;;;;;;;;;;;;;;16.48;50.20;97787.06;5077490;28;20055;-60
2023/06/18 02:09:06;;;;;;;;;;;;;;;16.33;50.72;97787.84;5074214;28;19928;-60
2023/06/18 02:11:33;;;;;;;;;;;;;;;16.30;51.37;97783.06;5082971;28;19974;-60
2023/06/18 02:14:01;;;;;;;;;;;;;;;15.96;51.81;97788.03;5070357;28;19920;-60
2023/06/18 02:16:29;;;;;;;;;;;;;;;15.80;52.28;97795.41;5069849;28;19920;-60
2023/06/18 02:18:57;;;;;;;;;;;;;;;15.70;52.66;97796.69;5084527;28;19970;-60
2023/06/18 02:21:28;;;;;;;;;;;;;;;15.58;52.82;97786.56;5090525;28;19957;-60
2023/06/18 02:23:57;;;;;;;;;;;;;;;15.54;53.26;97785.66;5072581;28;19924;-60
2023/06/18 02:26:24;;;;;;;;;;;;;;;15.46;53.31;97792.06;5079197;28;19974;-60
2023/06/18 02:28:53;;;;;;;;;;;;;;;15.57;53.52;97798.66;5076824;28;21010;-60
2023/06/18 02:31:21;;;;;;;;;;;;;;;15.45;53.69;97795.97;5092668;28;20003;-60
2023/06/18 02:33:49;;;;;;;;;;;;;;;15.50;53.78;97786.69;5089092;28;20363;-59
2023/06/18 02:36:17;;;;;;;;;;;;;;;15.37;53.98;97796.88;5084903;28;19936;-60
2023/06/18 02:38:47;;;;;;;;;;;;;;;15.41;54.10;97795.03;5084549;28;19962;-59
2023/06/18 02:41:15;;;;;;;;;;;;;;;15.51;53.66;97783.63;5090900;28;19920;-60
2023/06/18 02:43:43;;;;;;;;;;;;;;;15.39;54.19;97784.44;5092529;28;19920;-60
2023/06/18 02:46:11;;;;;;;;;;;;;;;15.43;53.80;97781.81;5094807;28;19920;-60
2023/06/18 02:48:40;;;;;;;;;;;;;;;15.33;54.37;97783.06;5087441;28;19943;-60
2023/06/18 02:51:08;;;;;;;;;;;;;;;15.37;54.14;97791.41;5074124;28;19935;-60
2023/06/18 02:53:35;;;;;;;;;;;;;;;15.29;54.11;97784.13;5077454;28;19977;-60
2023/06/18 02:56:04;;;;;;;;;;;;;;;15.28;54.25;97777.03;5068938;28;19927;-60
2023/06/18 02:58:35;;;;;;;;;;;;;;;15.32;54.16;97780.69;5077287;28;20324;-60
2023/06/18 03:01:05;;;;;;;;;;;;;;;15.37;54.13;97794.13;5088079;28;19955;-60
2023/06/18 03:03:38;;;;;;;;;;;;;;;15.35;54.02;97790.97;5093589;28;19928;-60
2023/06/18 03:06:06;;;;;;;;;;;;;;;15.37;54.02;97791.41;5072912;28;20051;-60
2023/06/18 03:08:34;;;;;;;;;;;;;;;15.27;54.07;97791.88;5092547;28;19955;-60
2023/06/18 03:11:02;;;;;;;;;;;;;;;15.22;54.36;97794.84;5094992;28;20238;-60
2023/06/18 03:13:33;;;;;;;;;;;;;;;15.28;54.26;97793.47;5080572;28;19927;-60
2023/06/18 03:16:01;;;;;;;;;;;;;;;15.26;54.43;97796.53;5068636;28;20333;-60
2023/06/18 03:18:33;;;;;;;;;;;;;;;15.22;54.25;97800.31;5083285;28;19924;-61
2023/06/18 03:21:02;;;;;;;;;;;;;;;15.25;54.73;97796.91;5090079;28;20272;-59
2023/06/18 03:23:29;;;;;;;;;;;;;;;15.28;54.41;97798.94;5070182;28;19930;-60
2023/06/18 03:26:01;;;;;;;;;;;;;;;15.36;54.37;97795.28;5068668;28;19921;-60
2023/06/18 03:28:30;;;;;;;;;;;;;;;15.24;54.55;97806.25;5072091;28;19978;-60
2023/06/18 03:31:00;;;;;;;;;;;;;;;15.14;54.77;97800.09;5074549;28;20020;-60
2023/06/18 03:33:31;;;;;;;;;;;;;;;15.10;54.88;97793.72;5059396;28;19928;-60
2023/06/18 03:36:00;;;;;;;;;;;;;;;15.26;54.59;97795.75;5071231;28;19969;-60
2023/06/18 03:38:29;;;;;;;;;;;;;;;15.17;54.72;97793.94;5063011;28;19986;-60
2023/06/18 03:41:01;;;;;;;;;;;;;;;15.17;54.56;97793.94;5067685;28;19966;-60
2023/06/18 03:43:30;;;;;;;;;;;;;;;15.03;54.64;97796.25;5069962;28;19927;-60
2023/06/18 03:46:00;;;;;;;;;;;;;;;15.08;54.66;97793.28;5082360;28;19920;-60
2023/06/18 03:48:30;;;;;;;;;;;;;;;15.02;55.16;97786.44;5069294;28;19928;-60
2023/06/18 03:50:58;;;;;;;;;;;;;;;14.96;55.33;97776.84;5069897;28;20043;-60
2023/06/18 03:53:27;;;;;;;;;;;;;;;14.96;55.20;97793.25;5071991;28;19931;-60
2023/06/18 03:55:55;;;;;;;;;;;;;;;15.03;54.77;97789.97;5071918;28;19928;-60
2023/06/18 03:58:23;;;;;;;;;;;;;;;14.97;55.23;97786.66;5070120;28;19921;-60
2023/06/18 04:00:53;;;;;;;;;;;;;;;14.95;54.75;97786.19;5071502;28;19966;-60
2023/06/18 04:03:22;;;;;;;;;;;;;;;14.99;54.50;97791.78;5070625;28;20002;-59
2023/06/18 04:05:50;;;;;;;;;;;;;;;14.96;54.95;97789.72;5081975;28;19947;-60
2023/06/18 04:08:18;;;;;;;;;;;;;;;15.01;54.67;97793.03;5070599;28;19929;-60
2023/06/18 04:10:47;;;;;;;;;;;;;;;15.11;54.72;97800.78;5061904;28;20005;-59
2023/06/18 04:13:15;;;;;;;;;;;;;;;15.18;54.23;97806.50;5068634;28;19927;-60
2023/06/18 04:15:43;;;;;;;;;;;;;;;15.18;54.12;97806.50;5072817;28;19957;-60
2023/06/18 04:18:11;;;;;;;;;;;;;;;15.33;54.13;97804.16;5070346;28;20023;-60
2023/06/18 04:20:41;;;;;;;;;;;;;;;15.27;53.89;97809.09;5068506;28;20277;-60
2023/06/18 04:23:10;;;;;;;;;;;;;;;15.25;54.18;97805.13;5069995;28;19927;-60
2023/06/18 04:25:38;;;;;;;;;;;;;;;15.12;54.74;97807.84;5071058;28;19929;-60
2023/06/18 04:28:06;;;;;;;;;;;;;;;15.12;54.63;97813.31;5070789;28;19920;-60
2023/06/18 04:30:34;;;;;;;;;;;;;;;15.02;54.70;97823.91;5063004;28;20254;-59
2023/06/18 04:33:04;;;;;;;;;;;;;;;15.20;54.70;97814.34;5074054;28;19924;-60
2023/06/18 04:35:32;;;;;;;;;;;;;;;15.16;54.90;97816.16;5070842;28;19920;-60
2023/06/18 04:38:01;;;;;;;;;;;;;;;15.19;54.43;97816.28;5069902;28;19985;-59
2023/06/18 04:40:31;;;;;;;;;;;;;;;15.22;54.33;97817.53;5062634;28;19928;-60
2023/06/18 04:43:02;;;;;;;;;;;;;;;15.16;54.75;97814.22;5078131;28;19920;-60
2023/06/18 04:45:36;;;;;;;;;;;;;;;15.30;54.55;97816.63;5068367;28;20380;-60
2023/06/18 04:48:06;;;;;;;;;;;;;;;15.36;54.37;97822.66;5071998;28;19920;-60
2023/06/18 04:50:35;;;;;;;;;;;;;;;15.34;54.44;97822.19;5070559;28;19970;-59
2023/06/18 04:53:05;;;;;;;;;;;;;;;15.43;54.42;97825.59;5059954;28;20692;-60
2023/06/18 04:55:33;;;;;;;;;;;;;;;15.38;53.84;97826.63;5074334;28;20011;-60
2023/06/18 04:58:00;;;;;;;;;;;;;;;15.43;53.93;97820.91;5070484;28;20389;-60
2023/06/18 05:00:30;;;;;;;;;;;;;;;15.47;53.86;97829.25;5069047;28;19974;-60
2023/06/18 05:02:58;;;;;;;;;;;;;;;15.45;53.54;97831.53;5077293;28;19921;-60
2023/06/18 05:05:26;;;;;;;;;;;;;;;15.46;53.79;97827.66;5069821;28;19932;-60
2023/06/18 05:07:54;;;;;;;;;;;;;;;15.55;53.57;97835.72;5084795;28;19920;-60
2023/06/18 05:10:25;;;;;;;;;;;;;;;15.58;53.43;97835.03;5074719;28;19951;-60
2023/06/18 05:12:54;;;;;;;;;;;;;;;15.66;53.33;97836.91;5069005;28;19965;-60
2023/06/18 05:15:23;;;;;;;;;;;;;;;15.75;53.19;97840.28;5063354;28;19923;-60
2023/06/18 05:17:50;;;;;;;;;;;;;;;15.96;52.83;97849.09;5079309;28;19947;-60
2023/06/18 05:20:20;;;;;;;;;;;;;;;15.95;52.82;97852.22;5068181;28;19920;-60
2023/06/18 05:22:53;;;;;;;;;;;;;;;15.95;52.37;97844.00;5075879;28;19932;-60
2023/06/18 05:25:23;;;;;;;;;;;;;;;16.00;52.43;97849.22;5076426;28;19990;-60
2023/06/18 05:27:52;;;;;;;;;;;;;;;16.14;52.36;97849.63;5070886;28;19984;-60
2023/06/18 05:30:21;;;;;;;;;;;;;;;16.12;51.88;97838.19;5071898;28;19952;-60
2023/06/18 05:32:50;;;;;;;;;;;;;;;16.20;51.94;97845.50;5072056;28;19920;-60
2023/06/18 05:35:18;;;;;;;;;;;;;;;16.29;52.02;97848.06;5060749;28;20248;-60
2023/06/18 05:37:51;;;;;;;;;;;;;;;16.29;52.26;97847.25;5082420;28;19920;-60
2023/06/18 05:40:19;;;;;;;;;;;;;;;16.30;51.94;97854.34;5079292;28;19920;-59
2023/06/18 05:42:47;;;;;;;;;;;;;;;16.38;52.03;97851.44;5073873;28;19993;-60
2023/06/18 05:45:17;;;;;;;;;;;;;;;16.38;51.72;97850.66;5068823;28;20137;-60
2023/06/18 05:47:46;;;;;;;;;;;;;;;16.35;51.86;97852.16;5069216;28;19927;-60
2023/06/18 05:50:22;;;;;;;;;;;;;;;16.37;51.72;97855.34;5087091;28;20051;-59
2023/06/18 05:52:50;;;;;;;;;;;;;;;16.53;51.92;97857.31;5071515;28;19974;-62
2023/06/18 05:55:18;;;;;;;;;;;;;;;16.65;51.89;97854.50;5078032;28;20436;-60
2023/06/18 05:57:46;;;;;;;;;;;;;;;16.79;51.64;97859.59;5068517;28;19969;-60
2023/06/18 06:00:14;;;;;;;;;;;;;;;16.91;51.26;97857.56;5067216;28;19920;-60
2023/06/18 06:02:47;;;;;;;;;;;;;;;16.99;50.94;97858.50;5065622;28;19920;-60
2023/06/18 06:05:20;;;;;;;;;;;;;;;17.06;50.63;97861.44;5071363;28;20006;-60
2023/06/18 06:07:49;;;;;;;;;;;;;;;17.07;50.48;97860.28;5062383;28;19931;-60
2023/06/18 06:10:18;;;;;;;;;;;;;;;17.19;50.35;97857.44;5076689;28;19920;-60
2023/06/18 06:12:49;;;;;;;;;;;;;;;17.29;50.72;97861.59;5072677;28;19932;-60
2023/06/18 06:15:17;;;;;;;;;;;;;;;17.36;50.33;97874.69;5071214;28;19920;-59
2023/06/18 06:17:46;;;;;;;;;;;;;;;17.41;50.17;97871.69;5076190;28;19932;-60
2023/06/18 06:20:16;;;;;;;;;;;;;;;17.50;50.33;97867.59;5077231;28;20254;-60
2023/06/18 06:22:45;;;;;;;;;;;;;;;17.54;50.01;97873.16;5077102;28;19927;-60
2023/06/18 06:25:13;;;;;;;;;;;;;;;17.64;49.77;97866.34;5088591;28;19920;-60
2023/06/18 06:27:42;;;;;;;;;;;;;;;17.65;49.15;97868.72;5080856;28;19925;-60
2023/06/18 06:30:11;;;;;;;;;;;;;;;17.72;49.67;97862.56;5083592;28;20019;-60
2023/06/18 06:32:38;;;;;;;;;;;;;;;17.81;49.10;97860.44;5074434;28;19928;-60
2023/06/18 06:35:06;;;;;;;;;;;;;;;17.90;48.97;97852.00;5073674;28;19920;-60
2023/06/18 06:37:36;;;;;;;;;;;;;;;17.99;48.71;97861.59;5072436;28;19924;-60
2023/06/18 06:40:06;;;;;;;;;;;;;;;18.12;48.49;97864.22;5070172;28;19920;-59
2023/06/18 06:42:36;;;;;;;;;;;;;;;18.23;48.34;97868.00;5073651;28;19927;-60
2023/06/18 06:45:20;;;;;;;;;;;;;;;18.23;48.39;97860.53;5073474;28;20015;-60
2023/06/18 06:48:07;;;;;;;;;;;;;;;18.27;48.27;97864.16;5087652;28;19921;-60
2023/06/18 06:50:41;;;;;;;;;;;;;;;18.42;48.60;97854.19;5087604;28;20020;-60
2023/06/18 06:53:15;;;;;;;;;;;;;;;18.51;47.86;97848.47;5070170;28;19920;-60
2023/06/18 06:55:43;;;;;;;;;;;;;;;18.63;47.44;97850.25;5086719;28;19931;-60
2023/06/18 06:58:14;;;;;;;;;;;;;;;18.65;48.14;97848.75;5068078;28;20028;-60
2023/06/18 07:00:42;;;;;;;;;;;;;;;18.73;47.93;97844.19;5078575;28;21602;-60
2023/06/18 07:03:10;;;;;;;;;;;;;;;18.81;47.81;97852.22;5066083;28;19928;-61
2023/06/18 07:05:38;;;;;;;;;;;;;;;18.90;47.03;97853.91;5084843;28;20027;-60
2023/06/18 07:08:06;;;;;;;;;;;;;;;19.00;46.97;97848.59;5079381;28;19955;-60
2023/06/18 07:10:35;;;;;;;;;;;;;;;19.05;47.44;97841.97;5084303;28;19920;-60
2023/06/18 07:13:03;;;;;;;;;;;;;;;19.10;46.40;97845.22;5087057;28;19928;-60
2023/06/18 07:15:30;;;;;;;;;;;;;;;19.27;46.82;97841.13;5075701;28;20345;-60
2023/06/18 07:17:58;;;;;;;;;;;;;;;19.29;46.71;97838.03;5061004;28;19970;-61
2023/06/18 07:20:26;;;;;;;;;;;;;;;19.36;47.13;97843.66;5091294;28;20345;-60
2023/06/18 07:22:59;;;;;;;;;;;;;;;19.43;47.21;97835.47;5081990;28;20010;-60
2023/06/18 07:25:27;;;;;;;;;;;;;;;19.49;46.40;97841.47;5065198;28;20011;-60
2023/06/18 07:27:57;;;;;;;;;;;;;;;19.52;45.83;97835.22;5067888;28;19951;-61
2023/06/18 07:30:24;;;;;;;;;;;;;;;19.60;46.24;97839.69;5069996;28;20242;-60
2023/06/18 07:32:52;;;;;;;;;;;;;;;19.75;46.25;97833.19;5070105;28;20393;-60
2023/06/18 07:35:20;;;;;;;;;;;;;;;19.82;46.33;97833.31;5068086;28;20267;-60
2023/06/18 07:37:49;;;;;;;;;;;;;;;19.85;46.26;97838.06;5061022;28;19970;-60
2023/06/18 07:40:17;;;;;;;;;;;;;;;19.94;45.23;97828.72;5057164;28;19932;-60
2023/06/18 07:42:44;;;;;;;;;;;;;;;20.18;43.70;97833.72;5068988;28;19968;-60
2023/06/18 07:45:14;;;;;;;;;;;;;;;20.28;42.52;97837.78;5063293;28;19956;-60
2023/06/18 07:47:42;;;;;;;;;;;;;;;20.44;41.17;97835.59;5067168;28;19966;-63
2023/06/18 07:50:10;;;;;;;;;;;;;;;20.40;40.78;97840.31;5060724;28;19952;-59
2023/06/18 07:52:38;;;;;;;;;;;;;;;20.43;40.88;97831.25;5063170;28;19921;-60
2023/06/18 07:55:06;;;;;;;;;;;;;;;20.50;41.09;97833.31;5069729;28;19920;-60
2023/06/18 07:57:34;;;;;;;;;;;;;;;20.67;39.97;97833.50;5071195;28;19920;-60
2023/06/18 08:00:05;;;;;;;;;;;;;;;20.77;40.20;97832.00;5069393;28;19936;-60
2023/06/18 08:02:40;;;;;;;;;;;;;;;20.81;40.64;97827.31;5056986;28;19921;-60
2023/06/18 08:05:08;;;;;;;;;;;;;;;20.91;38.63;97823.84;5066246;28;19924;-60
2023/06/18 08:07:36;;;;;;;;;;;;;;;20.89;41.21;97837.25;5061815;28;20023;-60
2023/06/18 08:10:04;;;;;;;;;;;;;;;20.89;41.99;97837.25;5071731;28;19920;-60
2023/06/18 08:12:33;;;;;;;;;;;;;;;21.03;40.91;97833.00;5057135;28;20277;-60
2023/06/18 08:15:01;;;;;;;;;;;;;;;21.04;41.99;97840.13;5068572;28;20412;-60
2023/06/18 08:17:29;;;;;;;;;;;;;;;21.05;40.31;97836.22;5065844;28;19921;-60
2023/06/18 08:19:58;;;;;;;;;;;;;;;21.24;38.98;97835.94;5084259;28;20407;-60
2023/06/18 08:22:26;;;;;;;;;;;;;;;21.24;40.64;97835.16;5064622;28;19966;-59
2023/06/18 08:24:54;;;;;;;;;;;;;;;21.27;41.24;97837.16;5072507;28;20458;-59
2023/06/18 08:27:22;;;;;;;;;;;;;;;21.30;40.82;97836.41;5057779;28;19966;-60
2023/06/18 08:29:52;;;;;;;;;;;;;;;21.30;39.70;97839.16;5076027;22;19927;-82
2023/06/18 08:32:20;;;;;;;;;;;;;;;21.59;37.83;97829.91;5030825;28;19909;-80
2023/06/18 08:34:48;;;;;;;;;;;;;;;21.67;37.18;97836.25;5048654;28;19925;-81
2023/06/18 08:37:17;;;;;;;;;;;;;;;21.71;37.43;97823.25;5034687;28;19933;-82
2023/06/18 08:39:45;;;;;;;;;;;;;;;21.74;38.63;97828.03;5018728;28;19925;-82
2023/06/18 08:42:17;;;;;;;;;;;;;;;21.76;38.20;97831.19;5032931;28;19932;-86
2023/06/18 08:44:46;;;;;;;;;;;;;;;21.75;38.84;97826.03;5022823;28;19926;-88
2023/06/18 08:47:14;;;;;;;;;;;;;;;21.77;39.98;97821.69;5033606;28;19928;-87
2023/06/18 08:49:43;;;;;;;;;;;;;;;21.82;39.54;97829.63;5006569;28;20309;-86
2023/06/18 08:52:11;;;;;;;;;;;;;;;21.86;38.29;97818.59;5028261;28;19976;-88
2023/06/18 08:54:41;;;;;;;;;;;;;;;22.32;35.45;97812.44;5033504;28;19933;-87
2023/06/18 08:57:24;;;;;;;;;;;;;;;22.26;37.69;97812.03;5031495;28;19925;-88
2023/06/18 08:59:54;;;;;;;;;;;;;;;22.37;34.79;97807.34;5052370;28;19929;-84
2023/06/18 09:02:46;;;;;;;;;;;;;;;22.49;34.45;97806.97;5009719;28;19925;-60
2023/06/18 09:05:25;;;;;;;;;;;;;;;22.68;34.32;97803.03;5006619;28;19979;-60
2023/06/18 09:07:53;;;;;;;;;;;;;;;22.84;33.82;97810.94;5010813;28;20374;-59
2023/06/18 09:10:23;;;;;;;;;;;;;;;22.89;34.03;97807.81;5008738;28;19925;-60
2023/06/18 09:12:51;;;;;;;;;;;;;;;23.05;32.51;97814.94;5011396;28;20037;-60
2023/06/18 09:15:19;;;;;;;;;;;;;;;22.88;33.70;97814.56;4992711;28;19949;-61
2023/06/18 09:17:49;;;;;;;;;;;;;;;22.77;34.86;97815.72;4992636;28;19937;-60
2023/06/18 09:20:20;;;;;;;;;;;;;;;22.62;36.47;97809.34;5000310;28;19930;-60
2023/06/18 09:22:48;;;;;;;;;;;;;;;22.56;35.37;97800.66;5001198;28;19936;-59
2023/06/18 09:25:20;;;;;;;;;;;;;;;22.64;34.97;97802.25;5011254;28;20029;-60
2023/06/18 09:27:50;;;;;;;;;;;;;;;22.73;37.08;97808.19;5010434;28;20008;-60
2023/06/18 09:30:18;;;;;;;;;;;;;;;22.71;35.61;97812.53;5006591;28;20374;-60
2023/06/18 09:32:46;;;;;;;;;;;;;;;22.67;33.99;97814.50;5007266;28;19926;-60
2023/06/18 09:35:15;;;;;;;;;;;;;;;22.68;37.76;97818.84;5004327;28;19933;-60
2023/06/18 09:37:44;;;;;;;;;;;;;;;22.73;36.44;97816.47;5009608;28;19926;-61
2023/06/18 09:40:15;;;;;;;;;;;;;;;22.82;36.38;97813.34;5010403;28;19926;-60
2023/06/18 09:42:45;;;;;;;;;;;;;;;22.90;36.53;97808.59;5008881;28;20370;-60
2023/06/18 09:45:17;;;;;;;;;;;;;;;22.93;34.63;97805.84;4994682;28;20279;-60
2023/06/18 09:47:46;;;;;;;;;;;;;;;23.13;33.44;97797.94;5004079;28;19933;-60
2023/06/18 09:50:15;;;;;;;;;;;;;;;23.19;35.39;97803.88;4994692;28;19976;-60
2023/06/18 09:52:49;;;;;;;;;;;;;;;23.11;34.72;97810.59;5013026;28;20436;-60
2023/06/18 09:55:27;;;;;;;;;;;;;;;23.06;35.73;97809.00;4996110;28;19932;-60
2023/06/18 09:57:55;;;;;;;;;;;;;;;23.03;36.44;97814.56;5014908;28;19925;-60
2023/06/18 10:00:25;;;;;;;;;;;;;;;23.08;35.40;97814.16;4996737;28;19960;-61
2023/06/18 10:02:53;;;;;;;;;;;;;;;23.12;32.87;97810.22;5013785;28;19948;-60
2023/06/18 10:05:21;;;;;;;;;;;;;;;23.44;30.38;97809.38;5005272;28;20012;-60
2023/06/18 10:07:49;;;;;;;;;;;;;;;23.44;31.16;97801.84;5002763;28;20294;-60
2023/06/18 10:10:17;;;;;;;;;;;;;;;23.42;33.20;97807.00;5022293;28;20289;-60
2023/06/18 10:12:47;;;;;;;;;;;;;;;23.24;33.84;97803.47;4996462;28;20370;-60
2023/06/18 10:15:15;;;;;;;;;;;;;;;23.26;30.67;97798.31;5005031;28;19934;-60
2023/06/18 10:17:48;;;;;;;;;;;;;;;23.60;30.05;97803.41;5012695;28;20027;-60
2023/06/18 10:20:16;;;;;;;;;;;;;;;23.63;30.34;97797.88;5005910;28;19980;-61
2023/06/18 10:22:47;;;;;;;;;;;;;;;23.63;29.71;97797.88;5003313;28;19930;-60
2023/06/18 10:25:15;;;;;;;;;;;;;;;23.82;30.51;97796.63;5022271;28;20628;-61
2023/06/18 10:27:43;;;;;;;;;;;;;;;23.88;29.86;97797.78;5013141;28;19987;-61
2023/06/18 10:30:13;;;;;;;;;;;;;;;23.88;30.40;97795.00;5002747;28;20405;-61
2023/06/18 10:32:42;;;;;;;;;;;;;;;24.03;29.22;97796.53;4992441;28;19936;-61
2023/06/18 10:35:12;;;;;;;;;;;;;;;23.94;29.13;97795.38;4985802;28;19925;-61
2023/06/18 10:37:41;;;;;;;;;;;;;;;24.14;27.49;97790.94;5011196;28;20020;-61
2023/06/18 10:40:09;;;;;;;;;;;;;;;24.13;27.15;97785.78;5007410;28;19952;-61
2023/06/18 10:42:37;;;;;;;;;;;;;;;24.07;29.17;97790.94;5009279;28;20344;-61
2023/06/18 10:45:12;;;;;;;;;;;;;;;23.94;27.10;97789.84;4983702;28;20507;-61
2023/06/18 10:47:40;;;;;;;;;;;;;;;24.26;27.38;97787.69;5007073;28;20385;-61
2023/06/18 10:50:17;;;;;;;;;;;;;;;24.17;28.50;97781.78;4986970;28;20282;-59
2023/06/18 10:52:49;;;;;;;;;;;;;;;24.22;27.84;97772.25;4982003;28;20312;-61
2023/06/18 10:55:27;;;;;;;;;;;;;;;24.26;28.81;97773.81;4982102;28;19932;-61
2023/06/18 10:57:59;;;;;;;;;;;;;;;24.08;28.54;97769.56;4999917;28;19926;-61
2023/06/18 11:00:32;;;;;;;;;;;;;;;24.48;27.17;97760.63;4996448;28;19933;-60
2023/06/18 11:03:01;;;;;;;;;;;;;;;24.44;27.75;97762.63;4998699;28;19925;-61
2023/06/18 11:05:56;;;;;;;;;;;;;;;24.27;30.09;97767.06;4986642;28;19969;-61
2023/06/18 11:08:30;;;;;;;;;;;;;;;24.08;30.46;97758.47;4959407;28;19926;-61
2023/06/18 11:11:01;;;;;;;;;;;;;;;24.33;27.73;97759.09;5000816;28;19926;-61
2023/06/18 11:13:30;;;;;;;;;;;;;;;24.60;26.72;97761.31;4996667;28;19926;-61
2023/06/18 11:16:02;;;;;;;;;;;;;;;24.76;26.51;97759.59;4997407;28;19984;-61
2023/06/18 11:18:30;;;;;;;;;;;;;;;24.53;30.22;97749.06;4997971;28;20440;-61
2023/06/18 11:20:58;;;;;;;;;;;;;;;24.51;27.47;97754.25;5000658;28;20366;-62
2023/06/18 11:23:28;;;;;;;;;;;;;;;24.63;28.98;97749.41;4988914;28;20225;-61
2023/06/18 11:25:58;;;;;;;;;;;;;;;24.82;27.15;97746.88;5003906;28;19925;-60
2023/06/18 11:28:26;;;;;;;;;;;;;;;25.19;26.43;97747.34;4998737;28;19933;-61
2023/06/18 11:30:59;;;;;;;;;;;;;;;25.29;26.52;97736.13;5002500;28;19926;-61
2023/06/18 11:33:29;;;;;;;;;;;;;;;25.20;27.14;97743.38;4987868;28;20317;-60
2023/06/18 11:36:06;;;;;;;;;;;;;;;25.07;27.00;97741.09;5000593;28;19956;-61
2023/06/18 11:38:36;;;;;;;;;;;;;;;25.10;26.58;97727.59;4982136;28;19934;-60
2023/06/18 11:41:03;;;;;;;;;;;;;;;25.12;27.95;97727.97;4997055;28;19930;-60
2023/06/18 11:43:44;;;;;;;;;;;;;;;25.13;27.14;97732.31;5007875;28;20279;-62
2023/06/18 11:46:13;;;;;;;;;;;;;;;25.36;25.42;97724.16;5000359;28;20294;-60
2023/06/18 11:48:44;;;;;;;;;;;;;;;25.15;27.47;97719.59;4999447;28;19929;-63
2023/06/18 11:51:13;;;;;;;;;;;;;;;25.09;27.42;97726.81;5010736;28;20290;-61
2023/06/18 11:53:42;;;;;;;;;;;;;;;25.12;26.79;97722.41;5012825;28;19948;-61
2023/06/18 11:56:13;;;;;;;;;;;;;;;24.87;27.89;97719.81;5001807;28;20016;-62
2023/06/18 11:58:41;;;;;;;;;;;;;;;25.28;25.68;97719.84;4998360;28;20020;-61
2023/06/18 12:01:09;;;;;;;;;;;;;;;25.30;26.20;97718.25;4974627;28;19933;-60
2023/06/18 12:03:37;;;;;;;;;;;;;;;25.12;26.36;97716.84;4963703;28;20035;-60
2023/06/18 12:06:12;;;;;;;;;;;;;;;25.19;25.89;97713.97;4972185;28;19926;-61
2023/06/18 12:08:45;;;;;;;;;;;;;;;25.38;25.88;97720.94;4973380;28;19927;-60
2023/06/18 12:11:28;;;;;;;;;;;;;;;25.37;25.62;97714.59;4956414;28;20366;-61
2023/06/18 12:13:57;;;;;;;;;;;;;;;25.06;27.82;97711.72;4963033;28;20022;-60
2023/06/18 12:16:25;;;;;;;;;;;;;;;24.95;26.73;97711.03;4965119;28;20370;-59
2023/06/18 12:18:58;;;;;;;;;;;;;;;25.04;26.64;97714.13;4964756;28;19933;-60
2023/06/18 12:21:25;;;;;;;;;;;;;;;25.07;26.30;97706.97;4963330;28;20320;-60
2023/06/18 12:23:56;;;;;;;;;;;;;;;25.14;27.41;97711.66;4974028;28;20016;-61
2023/06/18 12:26:24;;;;;;;;;;;;;;;24.90;26.96;97699.56;4964838;28;19934;-61
2023/06/18 12:28:53;;;;;;;;;;;;;;;24.83;26.53;97712.34;4963690;28;19930;-61
2023/06/18 12:31:21;;;;;;;;;;;;;;;24.83;28.00;97709.56;4967046;28;19930;-60
2023/06/18 12:33:49;;;;;;;;;;;;;;;25.03;26.57;97704.19;4964023;28;19960;-61
2023/06/18 12:36:17;;;;;;;;;;;;;;;25.06;27.99;97694.28;4964425;28;19933;-61
2023/06/18 12:38:46;;;;;;;;;;;;;;;25.06;28.72;97699.84;4965616;28;19930;-62
2023/06/18 12:41:22;;;;;;;;;;;;;;;25.51;25.90;97697.72;4968217;28;19926;-61
2023/06/18 12:43:51;;;;;;;;;;;;;;;25.39;27.41;97701.06;4960370;28;20026;-61
2023/06/18 12:46:25;;;;;;;;;;;;;;;25.41;26.32;97687.53;4961183;28;19934;-61
2023/06/18 12:48:54;;;;;;;;;;;;;;;25.24;25.71;97685.72;4967014;28;20297;-61
2023/06/18 12:51:22;;;;;;;;;;;;;;;25.30;25.57;97687.66;4964869;28;20327;-62
2023/06/18 12:53:52;;;;;;;;;;;;;;;25.23;27.14;97684.94;4964319;28;20031;-65
2023/06/18 12:56:22;;;;;;;;;;;;;;;25.21;27.44;97679.03;4965062;28;19953;-60
2023/06/18 12:58:51;;;;;;;;;;;;;;;25.24;26.69;97669.06;4969051;28;19926;-60
2023/06/18 13:01:20;;;;;;;;;;;;;;;25.17;28.46;97678.25;4974437;28;19953;-61